Time;durP1;ratioP1;P1;durP2;ratioP2;P2;SDS_P1;SDS_P2;PMS_P1;PMS_P2;Temp;Humidity;BMP_temperature;BMP_pressure;BME280_temperature;BME280_humidity;BME280_pressure;Samples;Min_cycle;Max_cycle;Signal;HPM_P1;HPM_P2
2024/04/04 00:02:19;;;;;;;0.70;0.40;;;11.20;99.90;11.20;99841.00;;;;4892143;28;108664;-65
2024/04/04 00:04:44;;;;;;;0.50;0.50;;;11.20;99.90;11.20;99842.00;;;;4892122;28;122577;-65
2024/04/04 00:07:10;;;;;;;0.50;0.30;;;11.20;99.90;11.30;99841.00;;;;4892739;28;122213;-65
2024/04/04 00:09:35;;;;;;;0.47;0.40;;;11.30;99.90;11.30;99836.00;;;;4894458;28;110558;-66
2024/04/04 00:12:01;;;;;;;0.83;0.33;;;11.30;99.90;11.30;99846.00;;;;4892350;28;108935;-65
2024/04/04 00:14:27;;;;;;;1.30;0.63;;;11.30;99.90;11.30;99839.00;;;;4891073;28;123709;-65
2024/04/04 00:16:52;;;;;;;0.60;0.50;;;11.30;99.90;11.30;99835.00;;;;4892059;28;120643;-66
2024/04/04 00:19:18;;;;;;;0.60;0.40;;;11.30;99.90;11.30;99840.00;;;;4894403;28;107975;-66
2024/04/04 00:21:44;;;;;;;0.37;0.37;;;11.10;99.90;11.30;99839.00;;;;4893336;28;108621;-66
2024/04/04 00:24:09;;;;;;;0.90;0.40;;;11.30;99.90;11.20;99829.00;;;;4892480;28;94544;-65
2024/04/04 00:26:35;;;;;;;1.10;0.40;;;11.20;99.90;11.20;99842.00;;;;4892629;28;93082;-65
2024/04/04 00:29:01;;;;;;;0.20;0.20;;;11.30;99.90;11.20;99826.00;;;;4893948;28;112249;-66
2024/04/04 00:31:26;;;;;;;0.20;0.20;;;11.20;99.90;11.20;99834.00;;;;4895724;28;109465;-65
2024/04/04 00:33:52;;;;;;;0.87;0.43;;;11.20;99.90;11.20;99832.00;;;;4891454;28;125520;-65
2024/04/04 00:36:18;;;;;;;0.20;0.20;;;11.20;99.90;11.20;99837.00;;;;4893612;28;93845;-65
2024/04/04 00:38:43;;;;;;;0.77;0.40;;;11.20;99.90;11.20;99837.00;;;;4893391;28;110834;-64
2024/04/04 00:41:09;;;;;;;0.27;0.23;;;11.20;99.90;11.20;99827.00;;;;4894354;28;109469;-65
2024/04/04 00:43:35;;;;;;;0.20;0.20;;;11.20;99.90;11.20;99826.00;;;;4893174;28;122434;-65
2024/04/04 00:46:03;;;;;;;0.30;0.30;;;11.20;99.90;11.20;99821.00;;;;4891885;28;122331;-65
2024/04/04 00:48:28;;;;;;;0.27;0.20;;;11.20;99.90;11.20;99827.00;;;;4892385;28;102244;-65
2024/04/04 00:50:54;;;;;;;0.20;0.20;;;11.30;99.90;11.30;99812.00;;;;4891964;28;108597;-65
2024/04/04 00:53:23;;;;;;;0.27;0.27;;;11.30;99.90;11.30;99827.00;;;;4889036;28;94112;-65
2024/04/04 00:55:49;;;;;;;0.20;0.20;;;11.30;99.90;11.30;99826.00;;;;4891994;28;112984;-65
2024/04/04 00:58:17;;;;;;;0.53;0.50;;;11.40;99.90;11.40;99827.00;;;;4892025;28;103189;-65
2024/04/04 01:00:42;;;;;;;1.70;0.50;;;11.40;99.90;11.40;99830.00;;;;4890996;28;107637;-65
2024/04/04 01:03:08;;;;;;;0.90;0.77;;;11.40;99.90;11.40;99826.00;;;;4893019;28;104088;-65
2024/04/04 01:05:34;;;;;;;0.53;0.50;;;11.80;99.90;11.40;99837.00;;;;4888205;28;110205;-65
2024/04/04 01:08:00;;;;;;;0.30;0.30;;;11.40;99.90;11.40;99830.00;;;;4893027;28;110511;-65
2024/04/04 01:10:25;;;;;;;0.50;0.40;;;11.40;99.90;11.50;99830.00;;;;4891721;28;110531;-66
2024/04/04 01:12:51;;;;;;;0.50;0.50;;;11.50;99.90;11.50;99839.00;;;;4892545;28;101555;-66
2024/04/04 01:15:17;;;;;;;0.67;0.43;;;11.50;99.90;11.50;99839.00;;;;4892168;28;121407;-66
2024/04/04 01:17:42;;;;;;;0.50;0.40;;;11.50;99.90;11.50;99843.00;;;;4892230;28;109709;-65
2024/04/04 01:20:08;;;;;;;1.07;0.50;;;11.50;99.90;11.50;99835.00;;;;4891368;28;110619;-66
2024/04/04 01:22:34;;;;;;;0.40;0.40;;;11.50;99.90;11.50;99836.00;;;;4891851;28;94587;-66
2024/04/04 01:25:00;;;;;;;0.27;0.27;;;11.50;99.90;11.50;99836.00;;;;4892639;28;118935;-65
2024/04/04 01:27:26;;;;;;;0.23;0.23;;;11.60;99.90;11.50;99839.00;;;;4891910;28;93453;-66
2024/04/04 01:29:51;;;;;;;0.70;0.30;;;11.60;99.90;11.60;99843.00;;;;4890556;28;93191;-66
2024/04/04 01:32:17;;;;;;;0.20;0.20;;;11.50;99.90;11.60;99840.00;;;;4890048;28;122329;-66
2024/04/04 01:34:43;;;;;;;0.63;0.40;;;11.60;99.90;11.60;99836.00;;;;4890364;28;122800;-66
2024/04/04 01:37:08;;;;;;;0.40;0.40;;;11.60;99.90;11.60;99840.00;;;;4890549;28;110627;-64
2024/04/04 01:39:34;;;;;;;0.20;0.20;;;11.60;99.90;11.60;99839.00;;;;4890756;28;93023;-65
2024/04/04 01:42:00;;;;;;;0.53;0.30;;;11.60;99.90;11.60;99842.00;;;;4893191;28;122989;-65
2024/04/04 01:44:25;;;;;;;1.10;0.60;;;11.70;99.90;11.60;99833.00;;;;4889899;28;121506;-65
2024/04/04 01:46:51;;;;;;;0.23;0.20;;;11.60;99.90;11.60;99833.00;;;;4890096;28;109683;-65
2024/04/04 01:49:18;;;;;;;0.60;0.40;;;11.60;99.90;11.60;99836.00;;;;4890514;28;104306;-66
2024/04/04 01:51:44;;;;;;;0.40;0.20;;;11.60;99.90;11.70;99833.00;;;;4893538;28;92868;-65
2024/04/04 01:54:15;;;;;;;0.37;0.37;;;11.70;99.90;11.70;99831.00;;;;4892791;28;116270;-66
2024/04/04 01:56:41;;;;;;;0.20;0.20;;;11.70;99.90;11.70;99846.00;;;;4891968;28;94149;-65
2024/04/04 01:59:07;;;;;;;1.00;0.27;;;11.70;99.90;11.60;99851.00;;;;4888491;28;101023;-65
2024/04/04 02:01:33;;;;;;;0.20;0.20;;;11.60;99.90;11.40;99844.00;;;;4891648;28;122435;-66
2024/04/04 02:03:58;;;;;;;0.60;0.40;;;11.50;99.90;11.20;99837.00;;;;4888272;28;123588;-67
2024/04/04 02:06:24;;;;;;;0.30;0.30;;;11.30;99.90;11.00;99833.00;;;;4890343;28;110520;-67
2024/04/04 02:08:50;;;;;;;0.67;0.33;;;11.20;99.90;10.90;99849.00;;;;4892151;28;109052;-65
2024/04/04 02:11:16;;;;;;;0.70;0.20;;;11.00;99.90;10.80;99839.00;;;;4891910;28;124204;-64
2024/04/04 02:13:41;;;;;;;0.47;0.47;;;10.90;99.90;10.70;99835.00;;;;4891144;28;94036;-64
2024/04/04 02:16:08;;;;;;;0.23;0.23;;;10.80;99.90;10.70;99839.00;;;;4891078;28;110574;-64
2024/04/04 02:18:35;;;;;;;0.70;0.70;;;10.70;99.90;10.60;99844.00;;;;4891710;28;92851;-64
2024/04/04 02:21:01;;;;;;;0.40;0.40;;;10.70;99.90;10.60;99842.00;;;;4890833;28;113225;-64
2024/04/04 02:23:28;;;;;;;0.60;0.50;;;10.70;99.90;10.50;99838.00;;;;4891351;28;94286;-64
2024/04/04 02:25:55;;;;;;;1.50;0.47;;;10.60;99.90;10.50;99839.00;;;;4892663;28;92892;-64
2024/04/04 02:28:21;;;;;;;2.73;0.70;;;10.60;99.90;10.50;99847.00;;;;4891942;28;93175;-64
2024/04/04 02:30:47;;;;;;;1.10;0.60;;;10.60;99.90;10.50;99839.00;;;;4889651;28;123179;-64
2024/04/04 02:33:12;;;;;;;1.37;0.60;;;10.60;99.90;10.40;99843.00;;;;4887391;28;121472;-64
2024/04/04 02:35:39;;;;;;;0.77;0.77;;;10.50;99.90;10.40;99845.00;;;;4889599;28;111429;-64
2024/04/04 02:38:06;;;;;;;0.97;0.87;;;10.50;99.90;10.40;99841.00;;;;4890467;28;92806;-64
2024/04/04 02:40:33;;;;;;;0.60;0.60;;;10.50;99.90;10.40;99838.00;;;;4893760;28;93710;-64
2024/04/04 02:43:00;;;;;;;0.70;0.43;;;10.50;99.90;10.40;99843.00;;;;4893417;28;93052;-64
2024/04/04 02:45:25;;;;;;;1.00;0.50;;;10.50;99.90;10.40;99843.00;;;;4896240;28;92862;-64
2024/04/04 02:47:51;;;;;;;0.67;0.67;;;10.50;99.90;10.40;99840.00;;;;4893301;28;94230;-64
2024/04/04 02:50:17;;;;;;;1.63;0.80;;;10.50;99.90;10.40;99841.00;;;;4894400;28;124134;-64
2024/04/04 02:52:43;;;;;;;1.37;0.70;;;10.50;99.90;10.40;99846.00;;;;4892872;28;123525;-64
2024/04/04 02:55:09;;;;;;;1.07;0.50;;;10.50;99.90;10.40;99840.00;;;;4892706;28;93055;-64
2024/04/04 02:57:38;;;;;;;0.70;0.70;;;10.50;99.90;10.50;99833.00;;;;4893340;28;93332;-63
2024/04/04 03:00:08;;;;;;;0.80;0.80;;;10.50;99.90;10.50;99834.00;;;;4893263;28;94476;-64
2024/04/04 03:02:34;;;;;;;0.63;0.47;;;10.50;99.90;10.50;99835.00;;;;4893874;28;94200;-64
2024/04/04 03:05:00;;;;;;;0.80;0.73;;;10.60;99.90;10.50;99839.00;;;;4893826;28;103741;-64
2024/04/04 03:07:27;;;;;;;0.53;0.53;;;10.50;99.90;10.50;99827.00;;;;4892395;28;110136;-64
2024/04/04 03:09:53;;;;;;;1.10;0.57;;;10.60;99.90;10.50;99847.00;;;;4893957;28;93660;-64
2024/04/04 03:12:18;;;;;;;0.60;0.60;;;10.50;99.90;10.50;99829.00;;;;4895283;28;111414;-64
2024/04/04 03:14:44;;;;;;;0.50;0.50;;;10.60;99.90;10.40;99832.00;;;;4893204;28;93378;-65
2024/04/04 03:17:10;;;;;;;0.53;0.53;;;10.50;99.90;10.40;99832.00;;;;4894414;28;106892;-64
2024/04/04 03:19:35;;;;;;;0.70;0.70;;;10.50;99.90;10.30;99836.00;;;;4894341;28;121033;-64
2024/04/04 03:22:01;;;;;;;1.87;0.87;;;10.40;99.90;10.30;99840.00;;;;4891988;28;122210;-64
2024/04/04 03:24:27;;;;;;;4.13;0.67;;;10.40;99.90;10.30;99836.00;;;;4893763;28;115643;-64
2024/04/04 03:26:52;;;;;;;2.83;1.23;;;10.40;99.90;10.20;99840.00;;;;4892904;28;108913;-64
2024/04/04 03:29:18;;;;;;;0.60;0.60;;;10.20;99.90;10.20;99839.00;;;;4891056;28;121462;-64
2024/04/04 03:31:44;;;;;;;2.03;0.73;;;10.30;99.90;10.20;99836.00;;;;4893442;28;122521;-64
2024/04/04 03:34:09;;;;;;;2.43;1.10;;;10.30;99.90;10.20;99837.00;;;;4891829;28;109969;-64
2024/04/04 03:36:35;;;;;;;1.03;0.40;;;10.30;99.90;10.20;99832.00;;;;4892895;28;93828;-63
2024/04/04 03:39:01;;;;;;;1.17;0.70;;;10.30;99.90;10.20;99826.00;;;;4893421;28;122538;-64
2024/04/04 03:41:26;;;;;;;1.23;0.80;;;10.30;99.90;10.20;99827.00;;;;4892084;28;93666;-64
2024/04/04 03:43:52;;;;;;;1.00;0.73;;;10.30;99.90;10.20;99821.00;;;;4893615;28;110618;-64
2024/04/04 03:46:18;;;;;;;1.43;0.60;;;10.30;99.90;10.20;99830.00;;;;4892671;28;108355;-64
2024/04/04 03:48:45;;;;;;;1.07;0.87;;;10.30;99.90;10.20;99835.00;;;;4893544;28;93658;-64
2024/04/04 03:51:11;;;;;;;1.93;0.87;;;10.30;99.90;10.30;99837.00;;;;4892272;28;93586;-64
2024/04/04 03:53:36;;;;;;;3.20;1.27;;;10.30;99.90;10.30;99834.00;;;;4893135;28;92242;-63
2024/04/04 03:56:02;;;;;;;2.73;0.97;;;10.40;99.90;10.30;99830.00;;;;4893224;28;108665;-64
2024/04/04 03:58:28;;;;;;;0.90;0.70;;;10.20;99.90;10.40;99846.00;;;;4892236;28;114536;-64
2024/04/04 04:00:53;;;;;;;2.63;0.97;;;10.50;99.90;10.40;99845.00;;;;4893152;28;122761;-64
2024/04/04 04:03:19;;;;;;;1.87;0.90;;;10.40;99.90;10.50;99848.00;;;;4894817;28;110472;-63
2024/04/04 04:05:46;;;;;;;1.37;0.90;;;10.50;99.90;10.50;99843.00;;;;4892893;28;109766;-63
2024/04/04 04:08:11;;;;;;;1.43;0.93;;;10.60;99.90;10.60;99850.00;;;;4891245;28;93431;-64
2024/04/04 04:10:37;;;;;;;0.87;0.67;;;10.60;99.90;10.60;99859.00;;;;4892685;28;93251;-65
2024/04/04 04:13:04;;;;;;;1.70;1.20;;;10.60;99.90;10.70;99859.00;;;;4893437;28;92805;-64
2024/04/04 04:15:30;;;;;;;1.90;1.03;;;10.70;99.90;10.70;99861.00;;;;4894881;28;92823;-65
2024/04/04 04:17:56;;;;;;;0.70;0.60;;;10.70;99.90;10.70;99859.00;;;;4892703;28;93133;-64
2024/04/04 04:23:22;;;;;;;1.87;1.13;;;10.80;99.90;10.80;99882.00;;;;4945493;28;93190;-65
2024/04/04 04:25:48;;;;;;;2.83;0.93;;;10.80;99.90;10.80;99880.00;;;;4904047;28;96005;-64
2024/04/04 04:28:13;;;;;;;1.20;0.90;;;10.90;99.90;10.80;99888.00;;;;4891386;28;122867;-64
2024/04/04 04:30:39;;;;;;;1.50;1.07;;;10.90;99.90;10.90;99885.00;;;;4894224;28;120730;-64
2024/04/04 04:33:06;;;;;;;0.67;0.57;;;10.90;99.90;10.90;99885.00;;;;4892394;28;110316;-64
2024/04/04 04:35:32;;;;;;;1.17;1.07;;;11.00;99.90;10.90;99890.00;;;;4892677;28;92741;-64
2024/04/04 04:37:58;;;;;;;1.10;0.97;;;11.00;99.90;11.00;99890.00;;;;4893103;28;92883;-64
2024/04/04 04:40:24;;;;;;;0.70;0.47;;;11.00;99.90;11.00;99889.00;;;;4891605;28;121453;-64
2024/04/04 04:42:50;;;;;;;0.90;0.60;;;11.00;99.90;11.00;99892.00;;;;4892211;28;109855;-64
2024/04/04 04:45:16;;;;;;;1.30;1.07;;;11.00;99.90;11.00;99894.00;;;;4893954;28;92837;-64
2024/04/04 04:47:43;;;;;;;1.10;0.70;;;11.00;99.90;11.00;99902.00;;;;4892061;28;93803;-63
2024/04/04 04:50:09;;;;;;;0.70;0.70;;;11.10;99.90;11.00;99891.00;;;;4892708;28;111461;-63
2024/04/04 04:52:34;;;;;;;0.50;0.50;;;11.00;99.90;11.00;99900.00;;;;4891826;28;110119;-63
2024/04/04 04:55:00;;;;;;;1.23;1.03;;;11.00;99.90;11.00;99898.00;;;;4893486;28;109402;-64
2024/04/04 04:57:26;;;;;;;0.60;0.60;;;11.10;99.90;11.00;99890.00;;;;4892019;28;124399;-63
2024/04/04 04:59:51;;;;;;;1.23;1.00;;;11.10;99.90;11.00;99888.00;;;;4891825;28;121950;-64
2024/04/04 05:02:18;;;;;;;0.50;0.50;;;11.10;99.90;11.10;99890.00;;;;4891219;28;92902;-63
2024/04/04 05:04:44;;;;;;;1.93;1.53;;;11.10;99.90;11.10;99899.00;;;;4893749;28;93016;-64
2024/04/04 05:07:09;;;;;;;0.70;0.53;;;11.10;99.90;11.10;99898.00;;;;4895163;28;120583;-63
2024/04/04 05:09:35;;;;;;;0.90;0.77;;;11.10;99.90;11.10;99906.00;;;;4892073;28;123022;-63
2024/04/04 05:12:00;;;;;;;0.43;0.40;;;11.10;99.90;11.10;99916.00;;;;4890765;28;110245;-64
2024/04/04 05:14:26;;;;;;;1.73;0.93;;;11.10;99.90;11.10;99909.00;;;;4887922;28;108823;-64
2024/04/04 05:16:52;;;;;;;1.03;0.73;;;11.20;99.90;11.10;99920.00;;;;4889144;28;122276;-63
2024/04/04 05:19:17;;;;;;;3.20;1.47;;;11.20;99.90;11.10;99922.00;;;;4888494;28;92948;-64
2024/04/04 05:21:43;;;;;;;0.77;0.50;;;11.20;99.90;11.10;99931.00;;;;4888933;28;110346;-64
2024/04/04 05:24:09;;;;;;;1.07;0.70;;;11.20;99.90;11.20;99919.00;;;;4890229;28;108494;-63
2024/04/04 05:26:34;;;;;;;0.70;0.70;;;11.30;99.90;11.30;99916.00;;;;4887359;28;94238;-63
2024/04/04 05:29:00;;;;;;;1.00;0.80;;;11.30;99.90;11.30;99923.00;;;;4888738;28;123529;-64
2024/04/04 05:31:26;;;;;;;1.33;0.83;;;11.30;99.90;11.40;99916.00;;;;4890105;28;111046;-63
2024/04/04 05:33:52;;;;;;;1.67;1.33;;;11.40;99.90;11.40;99915.00;;;;4887664;28;109284;-63
2024/04/04 05:36:18;;;;;;;0.80;0.77;;;11.40;99.90;11.40;99913.00;;;;4885757;28;123620;-64
2024/04/04 05:38:43;;;;;;;1.27;0.90;;;11.40;99.90;11.40;99929.00;;;;4888259;28;122645;-63
2024/04/04 05:41:09;;;;;;;2.10;1.07;;;11.40;99.90;11.40;99931.00;;;;4888708;28;110480;-64
2024/04/04 05:43:35;;;;;;;0.63;0.63;;;11.40;99.90;11.40;99947.00;;;;4887248;28;107792;-63
2024/04/04 05:46:02;;;;;;;2.33;1.03;;;11.40;99.90;11.50;99940.00;;;;4888380;28;123220;-65
2024/04/04 05:48:28;;;;;;;1.33;0.73;;;11.60;99.90;11.70;99936.00;;;;4890919;28;93137;-63
2024/04/04 05:51:03;;;;;;;0.60;0.60;;;11.60;99.90;11.80;99940.00;;;;4888319;28;109875;-64
2024/04/04 05:53:30;;;;;;;1.27;0.60;;;11.80;99.90;11.80;99937.00;;;;4887965;28;95909;-63
2024/04/04 05:55:55;;;;;;;2.43;1.23;;;11.80;99.90;11.90;99938.00;;;;4889833;28;93077;-64
2024/04/04 05:58:21;;;;;;;0.70;0.60;;;12.00;99.90;11.90;99931.00;;;;4886900;28;121784;-64
2024/04/04 06:00:47;;;;;;;0.60;0.60;;;12.00;99.90;12.00;99939.00;;;;4888357;28;111232;-63
2024/04/04 06:03:13;;;;;;;1.00;0.60;;;12.00;99.90;12.00;99943.00;;;;4887423;28;95290;-64
2024/04/04 06:05:39;;;;;;;1.47;0.93;;;12.00;99.90;12.00;99937.00;;;;4889963;28;123211;-65
2024/04/04 06:08:05;;;;;;;0.63;0.63;;;12.10;99.90;12.10;99953.00;;;;4890554;28;93414;-63
2024/04/04 06:10:31;;;;;;;1.50;0.93;;;12.10;99.90;12.10;99949.00;;;;4886744;28;101650;-64
2024/04/04 06:12:57;;;;;;;0.67;0.47;;;12.10;99.90;12.10;99944.00;;;;4887378;28;107960;-64
2024/04/04 06:15:22;;;;;;;1.00;0.87;;;12.10;99.90;12.00;99945.00;;;;4888761;28;93855;-64
2024/04/04 06:17:48;;;;;;;1.43;0.67;;;12.10;99.90;12.00;99940.00;;;;4888429;28;114063;-64
2024/04/04 06:20:14;;;;;;;0.70;0.43;;;12.10;99.90;12.00;99945.00;;;;4888313;28;108864;-65
2024/04/04 06:22:39;;;;;;;0.70;0.70;;;12.10;99.90;12.10;99944.00;;;;4889054;28;108666;-64
2024/04/04 06:25:05;;;;;;;0.70;0.40;;;12.10;99.90;12.10;99941.00;;;;4886822;28;121675;-63
2024/04/04 06:27:31;;;;;;;3.90;1.10;;;12.20;99.90;12.30;99941.00;;;;4887079;28;96689;-63
2024/04/04 06:29:56;;;;;;;4.63;0.97;;;12.30;99.90;12.50;99950.00;;;;4887781;28;110593;-65
2024/04/04 06:32:22;;;;;;;0.50;0.50;;;12.40;99.90;12.70;99948.00;;;;4885554;28;108745;-63
2024/04/04 06:34:48;;;;;;;0.27;0.27;;;12.60;99.90;12.90;99944.00;;;;4886379;28;121296;-63
2024/04/04 06:37:16;;;;;;;0.83;0.40;;;12.80;99.90;13.00;99948.00;;;;4884215;28;123406;-64
2024/04/04 06:39:43;;;;;;;0.20;0.20;;;13.00;99.90;13.20;99955.00;;;;4890026;28;93386;-64
2024/04/04 06:42:08;;;;;;;0.80;0.60;;;13.20;99.90;13.50;99955.00;;;;4890202;28;93245;-63
2024/04/04 06:44:34;;;;;;;1.50;0.60;;;13.40;99.90;13.60;99954.00;;;;4888308;28;93658;-63
2024/04/04 06:47:00;;;;;;;0.60;0.60;;;13.60;99.90;13.80;99957.00;;;;4886693;28;123755;-63
2024/04/04 06:49:25;;;;;;;3.53;0.50;;;13.80;99.90;14.00;99954.00;;;;4886352;28;108561;-63
2024/04/04 06:51:53;;;;;;;0.30;0.30;;;13.90;99.90;14.10;99945.00;;;;4889792;28;94078;-63
2024/04/04 06:54:19;;;;;;;1.83;0.47;;;14.00;99.90;14.20;99944.00;;;;4887219;28;94520;-63
2024/04/04 06:56:44;;;;;;;1.08;0.47;;;14.20;99.90;14.30;99958.00;;;;4886045;28;114943;-63
2024/04/04 06:59:10;;;;;;;2.13;0.40;;;14.30;99.90;14.30;99955.00;;;;4886820;28;112607;-63
2024/04/04 07:01:36;;;;;;;1.75;0.47;;;14.40;99.90;14.30;99947.00;;;;4887246;28;108490;-64
2024/04/04 07:04:02;;;;;;;2.72;0.38;;;14.30;99.90;14.30;99951.00;;;;4885504;28;94103;-63
2024/04/04 07:06:27;;;;;;;1.35;0.60;;;14.30;99.90;14.30;99958.00;;;;4889014;28;95681;-63
2024/04/04 07:08:54;;;;;;;1.05;0.60;;;14.30;99.90;14.30;99959.00;;;;4888647;28;103786;-64
2024/04/04 07:11:20;;;;;;;0.40;0.35;;;14.30;99.90;14.20;99966.00;;;;4886683;28;94239;-64
2024/04/04 07:13:46;;;;;;;4.57;0.50;;;14.30;99.90;14.20;99975.00;;;;4886804;28;94188;-64
2024/04/04 07:16:12;;;;;;;2.20;0.30;;;14.20;99.90;14.20;99969.00;;;;4885496;28;123254;-63
2024/04/04 07:18:38;;;;;;;0.97;0.57;;;14.20;99.90;14.10;99975.00;;;;4889472;28;93141;-64
2024/04/04 07:21:06;;;;;;;0.47;0.20;;;14.20;99.90;14.20;99967.00;;;;4888802;28;92968;-64
2024/04/04 07:23:33;;;;;;;1.58;0.52;;;14.20;99.90;14.20;99977.00;;;;4890305;28;93162;-65
2024/04/04 07:25:58;;;;;;;0.88;0.30;;;14.20;99.90;14.20;99988.00;;;;4890634;28;94282;-65
2024/04/04 07:28:24;;;;;;;0.30;0.30;;;14.20;99.90;14.20;99975.00;;;;4891501;28;109255;-64
2024/04/04 07:30:50;;;;;;;0.35;0.35;;;14.70;99.90;14.30;99988.00;;;;4888250;28;93203;-64
2024/04/04 07:33:16;;;;;;;3.60;0.63;;;14.30;99.90;14.30;99973.00;;;;4888803;28;122009;-65
2024/04/04 07:35:42;;;;;;;0.63;0.45;;;14.40;99.60;14.30;99971.00;;;;4891130;28;93398;-65
2024/04/04 07:38:08;;;;;;;0.22;0.22;;;14.40;99.70;14.30;99982.00;;;;4891182;28;93411;-64
2024/04/04 07:40:38;;;;;;;0.30;0.30;;;14.30;98.90;14.20;99982.00;;;;4891147;28;93941;-64
2024/04/04 07:43:06;;;;;;;0.20;0.20;;;14.30;99.00;14.30;99977.00;;;;4888862;28;93755;-64
2024/04/04 07:45:39;;;;;;;1.15;0.50;;;14.30;98.70;14.50;99982.00;;;;4889310;28;93540;-64
2024/04/04 07:48:14;;;;;;;1.15;0.65;;;14.40;98.80;14.70;99976.00;;;;4890068;28;93046;-64
2024/04/04 07:50:40;;;;;;;2.05;0.47;;;14.60;98.90;14.90;99989.00;;;;4890752;28;99925;-64
2024/04/04 07:53:08;;;;;;;0.85;0.45;;;14.80;98.50;15.10;99996.00;;;;4888793;28;94461;-65
2024/04/04 07:55:35;;;;;;;0.63;0.50;;;15.10;97.50;15.30;99995.00;;;;4887587;28;94248;-65
2024/04/04 07:58:00;;;;;;;0.28;0.20;;;15.30;96.90;15.40;99987.00;;;;4887528;28;92192;-65
2024/04/04 08:00:26;;;;;;;0.47;0.40;;;15.40;95.80;15.40;99994.00;;;;4889185;28;101993;-65
2024/04/04 08:02:52;;;;;;;0.20;0.20;;;15.50;95.40;15.40;99993.00;;;;4887732;28;123046;-65
2024/04/04 08:05:18;;;;;;;2.10;0.50;;;15.50;95.20;15.50;99981.00;;;;4887723;28;122203;-64
2024/04/04 08:07:43;;;;;;;0.28;0.28;;;15.50;95.30;15.60;99995.00;;;;4891170;28;93093;-64
2024/04/04 08:10:14;;;;;;;0.47;0.40;;;15.60;95.30;15.80;99986.00;;;;4890554;28;93656;-65
2024/04/04 08:12:39;;;;;;;0.28;0.28;;;15.70;94.90;15.90;99978.00;;;;4878584;28;93449;-64
2024/04/04 08:15:15;;;;;;;0.30;0.30;;;15.80;94.70;16.10;99973.00;;;;4894653;28;122521;-65
2024/04/04 08:17:46;;;;;;;0.17;0.17;;;16.10;93.70;16.20;99971.00;;;;4889424;28;93386;-65
2024/04/04 08:20:14;;;;;;;0.40;0.30;;;16.20;92.80;16.30;99984.00;;;;4891166;28;93275;-65
2024/04/04 08:22:46;;;;;;;0.30;0.30;;;16.40;92.00;16.30;99975.00;;;;4888821;28;93104;-65
2024/04/04 08:25:13;;;;;;;3.53;0.35;;;16.40;92.20;16.40;99973.00;;;;4889028;28;93546;-65
2024/04/04 08:27:39;;;;;;;2.50;0.35;;;16.50;92.10;16.60;99990.00;;;;4889796;28;93358;-64
2024/04/04 08:30:06;;;;;;;0.20;0.20;;;16.60;91.80;16.70;99977.00;;;;4889861;28;109561;-65
2024/04/04 08:32:31;;;;;;;0.10;0.10;;;16.70;91.20;16.70;99978.00;;;;4889049;28;115323;-65
2024/04/04 08:35:00;;;;;;;1.63;0.50;;;16.70;90.60;16.60;99976.00;;;;4889267;28;102448;-65
2024/04/04 08:37:25;;;;;;;1.90;0.63;;;16.70;90.70;16.70;99971.00;;;;4888754;28;93074;-65
2024/04/04 08:39:51;;;;;;;0.10;0.10;;;16.70;90.90;16.90;99982.00;;;;4886871;28;95548;-64
2024/04/04 08:42:17;;;;;;;0.30;0.30;;;16.80;91.00;17.10;99986.00;;;;4889198;28;94285;-64
2024/04/04 08:44:45;;;;;;;0.20;0.15;;;17.00;90.30;17.20;99981.00;;;;4888760;28;121735;-65
2024/04/04 08:47:12;;;;;;;0.52;0.30;;;17.20;89.50;17.20;99992.00;;;;4886901;28;92482;-65
2024/04/04 08:49:39;;;;;;;0.30;0.20;;;17.20;86.40;17.20;99981.00;;;;4889744;28;93545;-65
2024/04/04 08:52:05;;;;;;;1.85;0.30;;;17.20;85.20;17.00;99980.00;;;;4887911;28;94199;-65
2024/04/04 08:54:32;;;;;;;0.68;0.40;;;17.10;85.90;17.00;99974.00;;;;4875046;28;113025;-65
2024/04/04 08:56:59;;;;;;;0.20;0.20;;;17.10;87.10;17.10;99970.00;;;;4888457;28;92944;-65
2024/04/04 08:59:24;;;;;;;0.68;0.30;;;17.10;87.70;17.30;99963.00;;;;4888792;28;109901;-65
2024/04/04 09:01:51;;;;;;;0.20;0.20;;;17.20;88.30;17.60;99955.00;;;;4872912;28;122310;-64
2024/04/04 09:04:28;;;;;;;0.38;0.38;;;17.50;89.00;18.00;99945.00;;;;4887435;28;92819;-65
2024/04/04 09:06:54;;;;;;;0.17;0.17;;;17.80;88.50;18.30;99953.00;;;;4889729;28;92906;-65
2024/04/04 09:09:21;;;;;;;0.30;0.30;;;18.10;83.00;18.30;99964.00;;;;4889944;28;93248;-65
2024/04/04 09:11:47;;;;;;;1.92;0.65;;;18.20;81.00;18.40;99960.00;;;;4889509;28;93639;-64
2024/04/04 09:14:15;;;;;;;0.93;0.30;;;18.30;80.40;18.50;99961.00;;;;4888343;28;122486;-65
2024/04/04 09:16:41;;;;;;;0.35;0.28;;;18.40;80.20;18.70;99964.00;;;;4888216;28;93237;-65
2024/04/04 09:19:15;;;;;;;0.20;0.20;;;18.50;79.30;18.80;99953.00;;;;4888413;28;102518;-66
2024/04/04 09:21:45;;;;;;;0.25;0.20;;;18.60;77.90;18.90;99954.00;;;;4887487;28;117128;-65
2024/04/04 09:24:15;;;;;;;0.52;0.43;;;18.80;75.70;18.90;99960.00;;;;4879915;28;94549;-65
2024/04/04 09:26:49;;;;;;;0.50;0.32;;;18.80;75.70;19.00;99956.00;;;;4888002;28;93992;-66
2024/04/04 09:29:16;;;;;;;0.10;0.10;;;18.90;73.70;19.00;99965.00;;;;4889693;28;92931;-66
2024/04/04 09:31:43;;;;;;;0.90;0.43;;;18.90;72.80;19.10;99957.00;;;;4889572;28;93857;-65
2024/04/04 09:34:13;;;;;;;0.10;0.10;;;18.90;72.40;19.20;99968.00;;;;4889691;28;93484;-64
2024/04/04 09:36:42;;;;;;;0.38;0.32;;;19.00;72.80;19.10;99964.00;;;;4890099;28;92136;-64
2024/04/04 09:39:09;;;;;;;0.50;0.38;;;19.10;70.80;18.90;99961.00;;;;4889022;28;92996;-66
2024/04/04 09:41:38;;;;;;;2.90;1.02;;;19.00;71.10;18.70;99970.00;;;;4888648;28;93913;-64
2024/04/04 09:44:05;;;;;;;0.85;0.45;;;18.70;72.90;18.30;99970.00;;;;4888790;28;93996;-66
2024/04/04 09:46:37;;;;;;;0.10;0.10;;;18.40;74.40;17.90;99973.00;;;;4887924;28;93132;-64
2024/04/04 09:49:04;;;;;;;2.63;0.77;;;18.10;76.20;17.70;99978.00;;;;4890044;28;93634;-64
2024/04/04 09:51:33;;;;;;;1.52;0.50;;;17.80;77.50;17.60;99970.00;;;;4888355;28;99775;-64
2024/04/04 09:53:59;;;;;;;0.40;0.40;;;17.70;79.80;17.60;99976.00;;;;4889022;28;93615;-63
2024/04/04 09:56:26;;;;;;;1.23;0.52;;;17.50;81.10;17.60;99977.00;;;;4877351;28;108540;-63
2024/04/04 09:58:54;;;;;;;1.17;0.63;;;17.50;80.60;17.40;99974.00;;;;4887677;28;93142;-64
2024/04/04 10:01:26;;;;;;;0.73;0.65;;;17.40;80.90;17.20;99976.00;;;;4887501;28;122114;-64
2024/04/04 10:03:52;;;;;;;0.30;0.30;;;17.20;81.80;17.10;99974.00;;;;4887875;28;93346;-64
2024/04/04 10:06:32;;;;;;;6.28;1.10;;;17.10;81.90;17.00;99968.00;;;;4886481;28;93549;-64
2024/04/04 10:08:58;;;;;;;1.23;0.77;;;17.00;82.70;17.00;99964.00;;;;4886796;28;93741;-64
2024/04/04 10:11:32;;;;;;;0.45;0.43;;;16.90;83.50;17.00;99961.00;;;;4887310;28;93904;-64
2024/04/04 10:14:02;;;;;;;0.50;0.50;;;16.90;84.60;17.10;99960.00;;;;4889032;28;93511;-64
2024/04/04 10:16:35;;;;;;;0.20;0.20;;;16.90;84.70;17.10;99952.00;;;;4889954;28;93039;-64
2024/04/04 10:19:15;;;;;;;0.60;0.40;;;17.00;85.10;17.20;99953.00;;;;4887415;28;93229;-64
2024/04/04 10:21:42;;;;;;;3.95;1.08;;;17.00;85.10;17.10;99949.00;;;;4888484;28;94434;-64
2024/04/04 10:24:11;;;;;;;3.00;0.93;;;17.10;85.20;17.10;99951.00;;;;4887344;28;93502;-64
2024/04/04 10:26:37;;;;;;;0.40;0.40;;;17.00;86.40;17.10;99955.00;;;;4888381;28;92433;-65
2024/04/04 10:29:03;;;;;;;0.40;0.40;;;17.00;87.50;16.90;99968.00;;;;4885874;28;94516;-65
2024/04/04 10:31:30;;;;;;;0.20;0.20;;;16.90;90.10;16.50;99973.00;;;;4888444;28;93595;-64
2024/04/04 10:34:05;;;;;;;0.22;0.17;;;16.50;91.50;16.10;99975.00;;;;4886571;28;93849;-64
2024/04/04 10:36:45;;;;;;;0.25;0.25;;;16.20;93.80;15.60;99987.00;;;;4887201;28;92824;-64
2024/04/04 10:39:13;;;;;;;0.20;0.20;;;15.80;97.50;15.10;99978.00;;;;4886373;28;94051;-64
2024/04/04 10:41:41;;;;;;;0.10;0.10;;;15.30;99.90;14.70;99975.00;;;;4887297;28;93549;-65
2024/04/04 10:44:15;;;;;;;1.77;0.65;;;14.90;99.90;14.30;99962.00;;;;4886879;28;93231;-65
2024/04/04 10:46:55;;;;;;;0.35;0.35;;;14.50;99.90;14.10;99955.00;;;;4887810;28;92887;-65
2024/04/04 10:49:27;;;;;;;0.90;0.40;;;14.30;99.90;14.00;99941.00;;;;4885945;28;92990;-66
2024/04/04 10:52:03;;;;;;;1.45;0.20;;;14.10;99.90;13.90;99943.00;;;;4887222;28;92383;-65